Paris Express — DIHE — position and weather

sailwx.info

Track history (hours):
 
Tides and Currents Weather Stations Pressure Air Temp Water Temp Dewpoint Dewpoint Depression Visibility Wind Speed Wind Dir Waves Ship Positions

Paris Express

Last reported at 2014-Feb-20 10:23 UTC. Time now 2014-Sep-23 12:20 UTC.
Position N 53°30' E 009°56'.
Warning: this ship's position is months out of date.

Length 294.1 m; beam 32.3 m; draft 13.5 m.

Type: Ship (hazmat cat A). MMSI: 211220290.

Date/timePositionNaut miles runAvg speedWind from/ knotsBaromVisibWave heightAir tempDewpointWater temp
2014-Feb-20 10:23N 53°30' E 009°56'0 0.0
2014-Feb-20 09:34N 53°30' E 009°56'0 0.0
2014-Feb-20 08:34N 53°30' E 009°56'0 0.1
2014-Feb-20 07:34N 53°30' E 009°56'0 0.0
2014-Feb-20 06:34N 53°30' E 009°56'0 0.0
2014-Feb-20 05:33N 53°30' E 009°56'0 0.0
2014-Feb-20 04:34N 53°30' E 009°56'0 0.0
2014-Feb-20 03:34N 53°30' E 009°56'0 0.0
2014-Feb-20 02:34N 53°30' E 009°56'0 0.0
2014-Feb-20 01:34N 53°30' E 009°56'0 0.0
2014-Feb-20 00:34N 53°30' E 009°56'0 0.0
2014-Feb-19 23:34N 53°30' E 009°56'0 0.0
2014-Feb-19 22:34N 53°30' E 009°56'0 0.0
2014-Feb-19 21:34N 53°30' E 009°56'0 0.1
2014-Feb-19 20:34N 53°30' E 009°56'6 5.9
2014-Feb-19 19:34N 53°33' E 009°48'1212.0
2014-Feb-19 18:34N 53°39' E 009°31'7 6.9
2014-Feb-19 17:34N 53°45' E 009°24'1212.2
2014-Feb-19 16:33N 53°53' E 009°08'1312.5
2014-Feb-19 15:33N 53°50' E 008°47'1111.5
2014-Feb-19 14:34N 53°58' E 008°33'1413.9
2014-Feb-19 13:34N 53°59' E 008°09'9 9.4
2014-Feb-19 12:34N 53°58' E 007°53'10 9.9
2014-Feb-19 11:34N 53°56' E 007°37'9 8.7
2014-Feb-19 10:33N 53°54' E 007°23'7 7.2
2014-Feb-19 09:33N 53°52' E 007°11'6 6.4
2014-Feb-19 08:34N 53°50' E 007°01'1510.1
2014-Feb-19 07:05N 53°47' E 006°36'5 9.3
2014-Feb-19 06:31N 53°46' E 006°27'9 9.1
2014-Feb-19 05:34N 53°44' E 006°13'10 9.9
2014-Feb-19 04:33N 53°41' E 005°57'1110.9
2014-Feb-19 03:33N 53°37' E 005°40'1110.9
2014-Feb-19 02:34N 53°34' E 005°22'1110.9
2014-Feb-19 01:34N 53°30' E 005°05'1111.4
2014-Feb-19 00:33N 53°25' E 004°48'1111.0
2014-Feb-18 23:34N 53°16' E 004°37'1111.5
2014-Feb-18 22:33N 53°07' E 004°27'1211.6
2014-Feb-18 21:33N 52°56' E 004°18'1211.9
2014-Feb-18 20:33N 52°46' E 004°08'1212.5
2014-Feb-18 19:33N 52°36' E 003°55'1312.6
2014-Feb-18 18:33N 52°28' E 003°39'3913.1
2014-Feb-18 15:36N 51°51' E 003°22'1211.3
2014-Feb-18 14:33N 51°40' E 003°13'1717.0
2014-Feb-18 13:33N 51°25' E 003°01'1616.3
2014-Feb-18 12:33N 51°25' E 003°27'10 9.9
2014-Feb-18 11:33N 51°24' E 003°43'1211.8
2014-Feb-18 10:34N 51°26' E 004°01'1110.7
2014-Feb-18 09:34N 51°21' E 004°16'0 0.0
2014-Feb-18 08:34N 51°21' E 004°16'0 0.0
2014-Feb-18 07:34N 51°21' E 004°16'0 0.0
2014-Feb-18 06:33N 51°21' E 004°16'0 0.0
2014-Feb-18 05:34N 51°21' E 004°16'0 0.0
2014-Feb-18 04:34N 51°21' E 004°16'0 0.0
2014-Feb-18 03:33N 51°21' E 004°16'0 0.0
2014-Feb-18 02:34N 51°21' E 004°16'0 0.0
2014-Feb-18 01:34N 51°21' E 004°16'0 0.0
2014-Feb-18 00:34N 51°21' E 004°16'0 0.0
2014-Feb-17 23:34N 51°21' E 004°16'0 0.0
2014-Feb-17 22:34N 51°21' E 004°16'0 0.0
2014-Feb-17 21:33N 51°21' E 004°16'0 0.0
2014-Feb-17 20:33N 51°21' E 004°16'0 0.0
2014-Feb-17 19:34N 51°21' E 004°16'0 0.0
2014-Feb-17 18:33N 51°21' E 004°16'0 0.0
2014-Feb-17 17:34N 51°21' E 004°16'0 0.0
2014-Feb-17 16:33N 51°21' E 004°16'0 0.0
2014-Feb-17 15:34N 51°21' E 004°16'0 0.0
2014-Feb-17 14:33N 51°21' E 004°16'0 0.1
2014-Feb-17 13:34N 51°21' E 004°16'6 6.1
2014-Feb-17 12:34N 51°22' E 004°07'1010.1
2014-Feb-17 11:33N 51°21' E 003°51'1211.5
2014-Feb-17 10:34N 51°26' E 003°34'1313.2
2014-Feb-17 09:34N 51°24' E 003°13'1514.9
2014-Feb-17 08:33N 51°25' E 002°49'2311.6
2014-Feb-17 06:33N 51°17' E 002°14'1817.5
2014-Feb-17 05:32N 51°08' E 001°50'1717.8
2014-Feb-17 04:34N 50°55' E 001°31'3517.2
2014-Feb-17 02:34N 50°30' E 000°53'1817.6
2014-Feb-17 01:34N 50°26' E 000°27'3716.9
2014-Feb-16 23:23N 50°29' W 000°31'1518.0
2014-Feb-16 22:34N 50°36' W 000°51'1312.8
2014-Feb-16 21:34N 50°45' W 001°06'1110.7
2014-Feb-16 20:34N 50°51' W 001°20'6 3.2
2014-Feb-16 18:34N 50°55' W 001°28'0 0.0
2014-Feb-16 17:34N 50°55' W 001°28'0 0.0
2014-Feb-16 16:34N 50°55' W 001°28'0 0.0
2014-Feb-16 15:34N 50°55' W 001°28'0 0.0
2014-Feb-16 14:34N 50°55' W 001°28'0 0.0
2014-Feb-16 13:34N 50°55' W 001°28'0 0.0
2014-Feb-16 12:34N 50°55' W 001°28'0 0.0
2014-Feb-16 11:34N 50°55' W 001°28'0 0.0
2014-Feb-16 10:33N 50°55' W 001°28'0 0.0
2014-Feb-16 09:34N 50°55' W 001°28'0 0.0
2014-Feb-16 08:33N 50°55' W 001°28'0 0.0
2014-Feb-16 07:34N 50°55' W 001°28'0 0.0
2014-Feb-16 06:34N 50°55' W 001°28'0 0.0
2014-Feb-16 05:34N 50°55' W 001°28'0 0.0
2014-Feb-16 04:34N 50°55' W 001°28'0 0.0
2014-Feb-16 03:34N 50°55' W 001°28'0 0.0
2014-Feb-16 02:34N 50°55' W 001°28'0 0.0
2014-Feb-16 01:34N 50°55' W 001°28'0 0.0
2014-Feb-16 00:34N 50°55' W 001°28'2 1.5
2014-Feb-15 23:34N 50°54' W 001°26'8 7.8
2014-Feb-15 22:34N 50°48' W 001°17'2010.0
2014-Feb-15 20:34N 50°37' W 000°51'10 9.8
2014-Feb-15 19:34N 50°32' W 000°38'10 5.0
2014-Feb-15 17:34N 50°30' W 000°54'8 7.7
2014-Feb-15 16:34N 50°30' W 001°06'6 6.1
2014-Feb-15 15:33N 50°30' W 001°15'6 5.6
2014-Feb-15 14:34N 50°29' W 001°24'6 5.8
2014-Feb-15 13:33N 50°28' W 001°33'2 1.1
2014-Feb-15 11:33N 50°26' W 001°33'5 5.3
2014-Feb-15 10:33N 50°26' W 001°25'3 3.5
2014-Feb-15 09:34N 50°26' W 001°20'2 2.3
2014-Feb-15 08:34N 50°26' W 001°16'2 1.9
2014-Feb-15 07:34N 50°27' W 001°14'1 1.4
2014-Feb-15 06:34N 50°28' W 001°12'1 1.0
2014-Feb-15 05:34N 50°29' W 001°11'1 1.3
2014-Feb-15 04:34N 50°28' W 001°10'1 1.0
2014-Feb-15 03:33N 50°27' W 001°10'6 5.8
2014-Feb-15 02:33N 50°28' W 001°19'2 2.4
2014-Feb-15 01:34N 50°26' W 001°17'4 4.1
2014-Feb-15 00:34N 50°29' W 001°13'3 3.0
2014-Feb-14 23:33N 50°30' W 001°09'2 2.2
2014-Feb-14 22:34N 50°32' W 001°07'1 1.5
2014-Feb-14 21:34N 50°33' W 001°05'2 1.8
2014-Feb-14 20:34N 50°34' W 001°03'1 1.1
2014-Feb-14 19:34N 50°35' W 001°03'0 0.4
2014-Feb-14 18:34N 50°35' W 001°03'0 0.1
2014-Feb-14 17:34N 50°35' W 001°03'0 0.0
2014-Feb-14 15:32N 50°35' W 001°03'0 0.0
2014-Feb-14 13:33N 50°35' W 001°03'0 0.0
2014-Feb-14 12:32N 50°35' W 001°03'0 0.1
2014-Feb-14 11:33N 50°35' W 001°03'0 0.1
2014-Feb-14 10:33N 50°35' W 001°03'0 0.0
2014-Feb-14 09:33N 50°35' W 001°03'0 0.1
2014-Feb-14 08:34N 50°35' W 001°03'0 0.0
2014-Feb-14 07:33N 50°35' W 001°03'0 0.0
2014-Feb-14 06:34N 50°35' W 001°03'0 0.0
2014-Feb-14 05:34N 50°35' W 001°03'0 0.0
2014-Feb-14 04:33N 50°35' W 001°03'0 0.2
2014-Feb-14 03:34N 50°35' W 001°03'0 0.0
2014-Feb-14 02:34N 50°35' W 001°03'0 0.0
2014-Feb-14 01:34N 50°35' W 001°03'0 0.0
2014-Feb-14 00:34N 50°35' W 001°03'0 0.1
2014-Feb-13 23:34N 50°35' W 001°03'0 0.0
2014-Feb-13 22:34N 50°35' W 001°03'0 0.1
2014-Feb-13 21:34N 50°35' W 001°03'0 0.1
2014-Feb-13 20:32N 50°35' W 001°03'0 0.0
2014-Feb-13 19:34N 50°35' W 001°03'0 0.0
2014-Feb-13 18:32N 50°35' W 001°03'0 0.0
2014-Feb-13 17:32N 50°35' W 001°03'0 0.0
2014-Feb-13 16:33N 50°35' W 001°03'0 0.0
2014-Feb-13 15:33N 50°35' W 001°03'0 0.2
2014-Feb-13 14:34N 50°35' W 001°03'0 0.0
2014-Feb-13 13:33N 50°35' W 001°03'0 0.1
2014-Feb-13 12:33N 50°35' W 001°03'0 0.2
2014-Feb-13 11:33N 50°35' W 001°03'0 0.1
2014-Feb-13 10:33N 50°35' W 001°03'0 0.0
2014-Feb-13 09:31N 50°35' W 001°03'0 0.0
2014-Feb-13 08:33N 50°35' W 001°03'0 0.0
2014-Feb-13 07:33N 50°35' W 001°03'0 0.0
2014-Feb-13 06:34N 50°35' W 001°03'3 2.9
2014-Feb-13 05:29N 50°32' W 001°01'45515.4
2014-Feb-12 00:00N 47°54' W 011°54'11919.8 240 / 271003.010.8 10.8 4.712.0
2014-Feb-11 18:00N 47°18' W 014°42'34219.0 250 / 251007.010.8 5.511.0 5.012.0
2014-Feb-11 00:00N 45°36' W 022°36'23719.8 300 / 341006.5 5.4 9.0 4.913.0
2014-Feb-10 12:00N 44°48' W 028°06'   220 / 191001.010.8 4.512.511.113.0
Track history (hours):
 
Tides and Currents Weather Stations Pressure Air Temp Water Temp Dewpoint Dewpoint Depression Visibility Wind Speed Wind Dir Waves Ship Positions

Paris Express

Last reported at 2014-Feb-20 10:23 UTC. Time now 2014-Sep-23 12:20 UTC.
Position N 53°30' E 009°56'.
Warning: this ship's position is months out of date.

Length 294.1 m; beam 32.3 m; draft 13.5 m.

Type: Ship (hazmat cat A). MMSI: 211220290.

Date/timePositionNaut miles runAvg speedWind from/ knotsBaromVisibWave heightAir tempDewpointWater temp
2014-Feb-20 10:23N 53°30' E 009°56'0 0.0
2014-Feb-20 09:34N 53°30' E 009°56'0 0.0
2014-Feb-20 08:34N 53°30' E 009°56'0 0.1
2014-Feb-20 07:34N 53°30' E 009°56'0 0.0
2014-Feb-20 06:34N 53°30' E 009°56'0 0.0
2014-Feb-20 05:33N 53°30' E 009°56'0 0.0
2014-Feb-20 04:34N 53°30' E 009°56'0 0.0
2014-Feb-20 03:34N 53°30' E 009°56'0 0.0
2014-Feb-20 02:34N 53°30' E 009°56'0 0.0
2014-Feb-20 01:34N 53°30' E 009°56'0 0.0
2014-Feb-20 00:34N 53°30' E 009°56'0 0.0
2014-Feb-19 23:34N 53°30' E 009°56'0 0.0
2014-Feb-19 22:34N 53°30' E 009°56'0 0.0
2014-Feb-19 21:34N 53°30' E 009°56'0 0.1
2014-Feb-19 20:34N 53°30' E 009°56'6 5.9
2014-Feb-19 19:34N 53°33' E 009°48'1212.0
2014-Feb-19 18:34N 53°39' E 009°31'7 6.9
2014-Feb-19 17:34N 53°45' E 009°24'1212.2
2014-Feb-19 16:33N 53°53' E 009°08'1312.5
2014-Feb-19 15:33N 53°50' E 008°47'1111.5
2014-Feb-19 14:34N 53°58' E 008°33'1413.9
2014-Feb-19 13:34N 53°59' E 008°09'9 9.4
2014-Feb-19 12:34N 53°58' E 007°53'10 9.9
2014-Feb-19 11:34N 53°56' E 007°37'9 8.7
2014-Feb-19 10:33N 53°54' E 007°23'7 7.2
2014-Feb-19 09:33N 53°52' E 007°11'6 6.4
2014-Feb-19 08:34N 53°50' E 007°01'1510.1
2014-Feb-19 07:05N 53°47' E 006°36'5 9.3
2014-Feb-19 06:31N 53°46' E 006°27'9 9.1
2014-Feb-19 05:34N 53°44' E 006°13'10 9.9
2014-Feb-19 04:33N 53°41' E 005°57'1110.9
2014-Feb-19 03:33N 53°37' E 005°40'1110.9
2014-Feb-19 02:34N 53°34' E 005°22'1110.9
2014-Feb-19 01:34N 53°30' E 005°05'1111.4
2014-Feb-19 00:33N 53°25' E 004°48'1111.0
2014-Feb-18 23:34N 53°16' E 004°37'1111.5
2014-Feb-18 22:33N 53°07' E 004°27'1211.6
2014-Feb-18 21:33N 52°56' E 004°18'1211.9
2014-Feb-18 20:33N 52°46' E 004°08'1212.5
2014-Feb-18 19:33N 52°36' E 003°55'1312.6
2014-Feb-18 18:33N 52°28' E 003°39'3913.1
2014-Feb-18 15:36N 51°51' E 003°22'1211.3
2014-Feb-18 14:33N 51°40' E 003°13'1717.0
2014-Feb-18 13:33N 51°25' E 003°01'1616.3
2014-Feb-18 12:33N 51°25' E 003°27'10 9.9
2014-Feb-18 11:33N 51°24' E 003°43'1211.8
2014-Feb-18 10:34N 51°26' E 004°01'1110.7
2014-Feb-18 09:34N 51°21' E 004°16'0 0.0
2014-Feb-18 08:34N 51°21' E 004°16'0 0.0
2014-Feb-18 07:34N 51°21' E 004°16'0 0.0
2014-Feb-18 06:33N 51°21' E 004°16'0 0.0
2014-Feb-18 05:34N 51°21' E 004°16'0 0.0
2014-Feb-18 04:34N 51°21' E 004°16'0 0.0
2014-Feb-18 03:33N 51°21' E 004°16'0 0.0
2014-Feb-18 02:34N 51°21' E 004°16'0 0.0
2014-Feb-18 01:34N 51°21' E 004°16'0 0.0
2014-Feb-18 00:34N 51°21' E 004°16'0 0.0
2014-Feb-17 23:34N 51°21' E 004°16'0 0.0
2014-Feb-17 22:34N 51°21' E 004°16'0 0.0
2014-Feb-17 21:33N 51°21' E 004°16'0 0.0
2014-Feb-17 20:33N 51°21' E 004°16'0 0.0
2014-Feb-17 19:34N 51°21' E 004°16'0 0.0
2014-Feb-17 18:33N 51°21' E 004°16'0 0.0
2014-Feb-17 17:34N 51°21' E 004°16'0 0.0
2014-Feb-17 16:33N 51°21' E 004°16'0 0.0
2014-Feb-17 15:34N 51°21' E 004°16'0 0.0
2014-Feb-17 14:33N 51°21' E 004°16'0 0.1
2014-Feb-17 13:34N 51°21' E 004°16'6 6.1
2014-Feb-17 12:34N 51°22' E 004°07'1010.1
2014-Feb-17 11:33N 51°21' E 003°51'1211.5
2014-Feb-17 10:34N 51°26' E 003°34'1313.2
2014-Feb-17 09:34N 51°24' E 003°13'1514.9
2014-Feb-17 08:33N 51°25' E 002°49'2311.6
2014-Feb-17 06:33N 51°17' E 002°14'1817.5
2014-Feb-17 05:32N 51°08' E 001°50'1717.8
2014-Feb-17 04:34N 50°55' E 001°31'3517.2
2014-Feb-17 02:34N 50°30' E 000°53'1817.6
2014-Feb-17 01:34N 50°26' E 000°27'3716.9
2014-Feb-16 23:23N 50°29' W 000°31'1518.0
2014-Feb-16 22:34N 50°36' W 000°51'1312.8
2014-Feb-16 21:34N 50°45' W 001°06'1110.7
2014-Feb-16 20:34N 50°51' W 001°20'6 3.2
2014-Feb-16 18:34N 50°55' W 001°28'0 0.0
2014-Feb-16 17:34N 50°55' W 001°28'0 0.0
2014-Feb-16 16:34N 50°55' W 001°28'0 0.0
2014-Feb-16 15:34N 50°55' W 001°28'0 0.0
2014-Feb-16 14:34N 50°55' W 001°28'0 0.0
2014-Feb-16 13:34N 50°55' W 001°28'0 0.0
2014-Feb-16 12:34N 50°55' W 001°28'0 0.0
2014-Feb-16 11:34N 50°55' W 001°28'0 0.0
2014-Feb-16 10:33N 50°55' W 001°28'0 0.0
2014-Feb-16 09:34N 50°55' W 001°28'0 0.0
2014-Feb-16 08:33N 50°55' W 001°28'0 0.0
2014-Feb-16 07:34N 50°55' W 001°28'0 0.0
2014-Feb-16 06:34N 50°55' W 001°28'0 0.0
2014-Feb-16 05:34N 50°55' W 001°28'0 0.0
2014-Feb-16 04:34N 50°55' W 001°28'0 0.0
2014-Feb-16 03:34N 50°55' W 001°28'0 0.0
2014-Feb-16 02:34N 50°55' W 001°28'0 0.0
2014-Feb-16 01:34N 50°55' W 001°28'0 0.0
2014-Feb-16 00:34N 50°55' W 001°28'2 1.5
2014-Feb-15 23:34N 50°54' W 001°26'8 7.8
2014-Feb-15 22:34N 50°48' W 001°17'2010.0
2014-Feb-15 20:34N 50°37' W 000°51'10 9.8
2014-Feb-15 19:34N 50°32' W 000°38'10 5.0
2014-Feb-15 17:34N 50°30' W 000°54'8 7.7
2014-Feb-15 16:34N 50°30' W 001°06'6 6.1
2014-Feb-15 15:33N 50°30' W 001°15'6 5.6
2014-Feb-15 14:34N 50°29' W 001°24'6 5.8
2014-Feb-15 13:33N 50°28' W 001°33'2 1.1
2014-Feb-15 11:33N 50°26' W 001°33'5 5.3
2014-Feb-15 10:33N 50°26' W 001°25'3 3.5
2014-Feb-15 09:34N 50°26' W 001°20'2 2.3
2014-Feb-15 08:34N 50°26' W 001°16'2 1.9
2014-Feb-15 07:34N 50°27' W 001°14'1 1.4
2014-Feb-15 06:34N 50°28' W 001°12'1 1.0
2014-Feb-15 05:34N 50°29' W 001°11'1 1.3
2014-Feb-15 04:34N 50°28' W 001°10'1 1.0
2014-Feb-15 03:33N 50°27' W 001°10'6 5.8
2014-Feb-15 02:33N 50°28' W 001°19'2 2.4
2014-Feb-15 01:34N 50°26' W 001°17'4 4.1
2014-Feb-15 00:34N 50°29' W 001°13'3 3.0
2014-Feb-14 23:33N 50°30' W 001°09'2 2.2
2014-Feb-14 22:34N 50°32' W 001°07'1 1.5
2014-Feb-14 21:34N 50°33' W 001°05'2 1.8
2014-Feb-14 20:34N 50°34' W 001°03'1 1.1
2014-Feb-14 19:34N 50°35' W 001°03'0 0.4
2014-Feb-14 18:34N 50°35' W 001°03'0 0.1
2014-Feb-14 17:34N 50°35' W 001°03'0 0.0
2014-Feb-14 15:32N 50°35' W 001°03'0 0.0
2014-Feb-14 13:33N 50°35' W 001°03'0 0.0
2014-Feb-14 12:32N 50°35' W 001°03'0 0.1
2014-Feb-14 11:33N 50°35' W 001°03'0 0.1
2014-Feb-14 10:33N 50°35' W 001°03'0 0.0
2014-Feb-14 09:33N 50°35' W 001°03'0 0.1
2014-Feb-14 08:34N 50°35' W 001°03'0 0.0
2014-Feb-14 07:33N 50°35' W 001°03'0 0.0
2014-Feb-14 06:34N 50°35' W 001°03'0 0.0
2014-Feb-14 05:34N 50°35' W 001°03'0 0.0
2014-Feb-14 04:33N 50°35' W 001°03'0 0.2
2014-Feb-14 03:34N 50°35' W 001°03'0 0.0
2014-Feb-14 02:34N 50°35' W 001°03'0 0.0
2014-Feb-14 01:34N 50°35' W 001°03'0 0.0
2014-Feb-14 00:34N 50°35' W 001°03'0 0.1
2014-Feb-13 23:34N 50°35' W 001°03'0 0.0
2014-Feb-13 22:34N 50°35' W 001°03'0 0.1
2014-Feb-13 21:34N 50°35' W 001°03'0 0.1
2014-Feb-13 20:32N 50°35' W 001°03'0 0.0
2014-Feb-13 19:34N 50°35' W 001°03'0 0.0
2014-Feb-13 18:32N 50°35' W 001°03'0 0.0
2014-Feb-13 17:32N 50°35' W 001°03'0 0.0
2014-Feb-13 16:33N 50°35' W 001°03'0 0.0
2014-Feb-13 15:33N 50°35' W 001°03'0 0.2
2014-Feb-13 14:34N 50°35' W 001°03'0 0.0
2014-Feb-13 13:33N 50°35' W 001°03'0 0.1
2014-Feb-13 12:33N 50°35' W 001°03'0 0.2
2014-Feb-13 11:33N 50°35' W 001°03'0 0.1
2014-Feb-13 10:33N 50°35' W 001°03'0 0.0
2014-Feb-13 09:31N 50°35' W 001°03'0 0.0
2014-Feb-13 08:33N 50°35' W 001°03'0 0.0
2014-Feb-13 07:33N 50°35' W 001°03'0 0.0
2014-Feb-13 06:34N 50°35' W 001°03'3 2.9
2014-Feb-13 05:29N 50°32' W 001°01'45515.4
2014-Feb-12 00:00N 47°54' W 011°54'11919.8 240 / 271003.010.8 10.8 4.712.0
2014-Feb-11 18:00N 47°18' W 014°42'34219.0 250 / 251007.010.8 5.511.0 5.012.0
2014-Feb-11 00:00N 45°36' W 022°36'23719.8 300 / 341006.5 5.4 9.0 4.913.0
2014-Feb-10 12:00N 44°48' W 028°06'   220 / 191001.010.8 4.512.511.113.0

Dump ship's entire track history